createdAt,value
2022-10-26T00:00:26.229Z,11.59
2022-10-26T00:01:26.283Z,11.59
2022-10-26T00:02:26.297Z,11.60
2022-10-26T00:03:26.186Z,11.60
2022-10-26T00:04:26.138Z,11.59
2022-10-26T00:05:26.107Z,11.56
2022-10-26T00:06:26.107Z,11.58
2022-10-26T00:07:26.124Z,11.56
2022-10-26T00:08:26.080Z,11.56
2022-10-26T00:09:26.766Z,11.56
2022-10-26T00:10:28.279Z,11.56
2022-10-26T00:11:26.039Z,11.56
2022-10-26T00:12:26.030Z,11.55
2022-10-26T00:13:26.053Z,11.55
2022-10-26T00:14:26.016Z,11.53
2022-10-26T00:15:26.001Z,11.51
2022-10-26T00:16:25.987Z,11.49
2022-10-26T00:17:25.983Z,11.49
2022-10-26T00:18:26.002Z,11.49
2022-10-26T00:19:25.961Z,11.48
2022-10-26T00:20:25.950Z,11.44
2022-10-26T00:21:25.983Z,11.44
2022-10-26T00:22:25.920Z,11.43
2022-10-26T00:23:25.958Z,11.43
2022-10-26T00:24:25.903Z,11.41
2022-10-26T00:25:25.922Z,11.38
2022-10-26T00:26:25.927Z,11.35
2022-10-26T00:27:25.857Z,11.33
2022-10-26T00:28:25.854Z,11.33
2022-10-26T00:29:25.893Z,11.33
2022-10-26T00:30:25.822Z,11.31
2022-10-26T00:31:25.862Z,11.33
2022-10-26T00:32:25.826Z,11.33
2022-10-26T00:33:25.813Z,11.31
2022-10-26T00:34:25.800Z,11.33
2022-10-26T00:35:44.691Z,11.30
2022-10-26T00:36:25.799Z,11.31
2022-10-26T00:37:25.776Z,11.31
2022-10-26T00:38:25.743Z,11.27
2022-10-26T00:39:25.729Z,11.26
2022-10-26T00:40:25.713Z,11.26
2022-10-26T00:41:25.705Z,11.23
2022-10-26T00:42:25.722Z,11.23
2022-10-26T00:43:25.678Z,11.19
2022-10-26T00:44:25.709Z,11.18
2022-10-26T00:45:25.655Z,11.15
2022-10-26T00:46:25.645Z,11.13
2022-10-26T00:47:25.673Z,11.07
2022-10-26T00:48:25.621Z,11.02
2022-10-26T00:49:25.625Z,11.01
2022-10-26T00:50:25.611Z,10.97
2022-10-26T00:51:25.633Z,11.00
2022-10-26T00:52:25.617Z,10.98
2022-10-26T00:53:25.610Z,10.95
2022-10-26T00:54:25.553Z,10.95
2022-10-26T00:55:25.547Z,10.95
2022-10-26T00:56:25.532Z,10.98
2022-10-26T00:57:25.641Z,11.01
2022-10-26T00:58:25.553Z,11.02
2022-10-26T00:59:25.500Z,11.02
2022-10-26T01:00:25.484Z,11.02
2022-10-26T01:01:25.535Z,11.02
2022-10-26T01:02:25.501Z,11.02
2022-10-26T01:03:25.680Z,11.02
2022-10-26T01:04:25.442Z,11.07
2022-10-26T01:05:25.434Z,11.08
2022-10-26T01:06:25.449Z,11.08
2022-10-26T01:07:25.438Z,11.08
2022-10-26T01:08:25.417Z,11.10
2022-10-26T01:09:25.395Z,11.08
2022-10-26T01:10:25.896Z,11.08
2022-10-26T01:11:25.396Z,11.10
2022-10-26T01:12:25.357Z,11.12
2022-10-26T01:13:25.342Z,11.10
2022-10-26T01:14:25.331Z,11.12
2022-10-26T01:15:25.357Z,11.12
2022-10-26T01:16:25.341Z,11.13
2022-10-26T01:17:25.298Z,11.12
2022-10-26T01:18:25.350Z,11.10
2022-10-26T01:19:25.288Z,11.12
2022-10-26T01:20:25.305Z,11.12
2022-10-26T01:21:25.317Z,11.12
2022-10-26T01:22:26.132Z,11.10
2022-10-26T01:23:25.295Z,11.08
2022-10-26T01:24:25.213Z,11.05
2022-10-26T01:25:25.207Z,11.02
2022-10-26T01:26:25.262Z,11.01
2022-10-26T01:27:25.241Z,11.00
2022-10-26T01:28:25.184Z,11.00
2022-10-26T01:29:25.158Z,10.98
2022-10-26T01:30:25.182Z,11.00
2022-10-26T01:31:25.174Z,10.98
2022-10-26T01:32:25.893Z,10.98
2022-10-26T01:33:25.128Z,10.97
2022-10-26T01:34:25.111Z,10.97
2022-10-26T01:35:25.131Z,10.94
2022-10-26T01:36:25.121Z,10.90
2022-10-26T01:37:25.076Z,10.89
2022-10-26T01:38:25.144Z,10.89
2022-10-26T01:39:25.051Z,10.86
2022-10-26T01:40:25.038Z,10.87
2022-10-26T01:41:25.036Z,10.87
2022-10-26T01:42:25.055Z,10.89
2022-10-26T01:43:25.050Z,10.87
2022-10-26T01:44:25.084Z,10.87
2022-10-26T01:45:24.993Z,10.87
2022-10-26T01:46:24.978Z,10.87
2022-10-26T01:47:24.967Z,10.87
2022-10-26T01:48:24.988Z,10.87
2022-10-26T01:49:24.956Z,10.87
2022-10-26T01:50:25.065Z,10.84
2022-10-26T01:51:24.922Z,10.86
2022-10-26T01:52:24.910Z,10.86
2022-10-26T01:53:24.904Z,10.83
2022-10-26T01:54:24.912Z,10.83
2022-10-26T01:55:24.923Z,10.82
2022-10-26T01:56:24.884Z,10.80
2022-10-26T01:57:24.881Z,10.76
2022-10-26T01:58:24.850Z,10.76
2022-10-26T01:59:24.834Z,10.79
2022-10-26T02:00:24.814Z,10.79
2022-10-26T02:01:24.915Z,10.79
2022-10-26T02:02:24.838Z,10.79
2022-10-26T02:03:24.860Z,10.79
2022-10-26T02:05:24.763Z,10.80
2022-10-26T02:06:24.790Z,10.83
2022-10-26T02:07:24.741Z,10.84
2022-10-26T02:08:24.732Z,10.84
2022-10-26T02:09:24.728Z,10.84
2022-10-26T02:10:24.718Z,10.83
2022-10-26T02:11:24.700Z,10.83
2022-10-26T02:12:24.715Z,10.82
2022-10-26T02:13:24.732Z,10.83
2022-10-26T02:14:24.663Z,10.82
2022-10-26T02:15:24.656Z,10.80
2022-10-26T02:16:24.639Z,10.80
2022-10-26T02:17:24.673Z,10.80
2022-10-26T02:18:24.630Z,10.79
2022-10-26T02:19:24.608Z,10.77
2022-10-26T02:20:24.596Z,10.75
2022-10-26T02:21:24.608Z,10.75
2022-10-26T02:22:25.256Z,10.75
2022-10-26T02:23:24.571Z,10.72
2022-10-26T02:24:24.602Z,10.69
2022-10-26T02:25:24.584Z,10.68
2022-10-26T02:26:24.600Z,10.67
2022-10-26T02:27:24.535Z,10.67
2022-10-26T02:28:24.507Z,10.65
2022-10-26T02:29:24.499Z,10.61
2022-10-26T02:30:24.612Z,10.58
2022-10-26T02:31:24.473Z,10.58
2022-10-26T02:32:24.508Z,10.55
2022-10-26T02:33:24.463Z,10.48
2022-10-26T02:34:24.448Z,10.46
2022-10-26T02:35:24.460Z,10.42
2022-10-26T02:36:24.417Z,10.41
2022-10-26T02:37:24.444Z,10.38
2022-10-26T02:38:24.394Z,10.36
2022-10-26T02:39:24.394Z,10.36
2022-10-26T02:40:24.386Z,10.33
2022-10-26T02:41:24.413Z,10.36
2022-10-26T02:42:45.381Z,10.33
2022-10-26T02:43:24.415Z,10.33
2022-10-26T02:44:24.353Z,10.30
2022-10-26T02:45:24.378Z,10.30
2022-10-26T02:46:24.301Z,10.27
2022-10-26T02:47:24.331Z,10.24
2022-10-26T02:48:24.281Z,10.23
2022-10-26T02:49:24.274Z,10.21
2022-10-26T02:50:24.293Z,10.23
2022-10-26T02:51:24.298Z,10.25
2022-10-26T02:52:24.243Z,10.23
2022-10-26T02:53:24.274Z,10.21
2022-10-26T02:54:24.232Z,10.21
2022-10-26T02:55:24.463Z,10.20
2022-10-26T02:56:24.199Z,10.20
2022-10-26T02:57:24.182Z,10.20
2022-10-26T02:58:24.216Z,10.17
2022-10-26T02:59:24.160Z,10.17
2022-10-26T03:00:24.157Z,10.17
2022-10-26T03:01:24.191Z,10.15
2022-10-26T03:02:24.179Z,10.15
2022-10-26T03:03:24.149Z,10.15
2022-10-26T03:04:24.190Z,10.15
2022-10-26T03:05:24.111Z,10.17
2022-10-26T03:06:24.085Z,10.15
2022-10-26T03:07:24.157Z,10.17
2022-10-26T03:08:24.117Z,10.18
2022-10-26T03:09:25.518Z,10.18
2022-10-26T03:10:24.037Z,10.17
2022-10-26T03:11:24.036Z,10.15
2022-10-26T03:12:24.069Z,10.13
2022-10-26T03:13:24.033Z,10.12
2022-10-26T03:14:24.037Z,10.13
2022-10-26T03:15:23.983Z,10.13
2022-10-26T03:16:23.980Z,10.12
2022-10-26T03:17:23.995Z,10.15
2022-10-26T03:18:23.962Z,10.15
2022-10-26T03:19:23.980Z,10.17
2022-10-26T03:20:23.922Z,10.17
2022-10-26T03:21:23.907Z,10.18
2022-10-26T03:22:23.936Z,10.21
2022-10-26T03:23:23.892Z,10.18
2022-10-26T03:24:23.887Z,10.18
2022-10-26T03:25:23.872Z,10.15
2022-10-26T03:26:23.877Z,10.15
2022-10-26T03:27:23.897Z,10.12
2022-10-26T03:28:23.835Z,10.12
2022-10-26T03:29:23.860Z,10.10
2022-10-26T03:30:23.853Z,10.07
2022-10-26T03:31:23.799Z,10.07
2022-10-26T03:32:23.831Z,10.10
2022-10-26T03:33:27.023Z,10.10
2022-10-26T03:34:23.773Z,10.10
2022-10-26T03:35:23.827Z,10.10
2022-10-26T03:36:23.757Z,10.10
2022-10-26T03:37:23.743Z,10.12
2022-10-26T03:38:23.786Z,10.12
2022-10-26T03:39:23.707Z,10.13
2022-10-26T03:40:23.738Z,10.13
2022-10-26T03:41:23.691Z,10.10
2022-10-26T03:42:23.705Z,10.10
2022-10-26T03:43:23.660Z,10.07
2022-10-26T03:44:23.653Z,10.06
2022-10-26T03:45:23.684Z,10.02
2022-10-26T03:46:23.642Z,10.00
2022-10-26T03:47:23.667Z,10.03
2022-10-26T03:48:23.614Z,10.02
2022-10-26T03:49:23.641Z,10.02
2022-10-26T03:50:23.601Z,9.99
2022-10-26T03:51:23.627Z,9.95
2022-10-26T03:52:23.622Z,9.99
2022-10-26T03:53:23.623Z,9.97
2022-10-26T03:54:23.589Z,9.95
2022-10-26T03:55:23.535Z,9.95
2022-10-26T03:56:23.525Z,9.92
2022-10-26T03:57:23.507Z,9.94
2022-10-26T03:58:23.534Z,9.94
2022-10-26T03:59:23.521Z,9.94
2022-10-26T04:00:23.482Z,9.92
2022-10-26T04:01:23.566Z,9.90
2022-10-26T04:02:23.462Z,9.90
2022-10-26T04:03:23.499Z,9.88
2022-10-26T04:04:23.461Z,9.91
2022-10-26T04:05:23.507Z,9.88
2022-10-26T04:06:23.515Z,9.87
2022-10-26T04:07:23.403Z,9.84
2022-10-26T04:08:23.395Z,9.77
2022-10-26T04:09:23.380Z,9.73
2022-10-26T04:10:23.384Z,9.72
2022-10-26T04:11:23.399Z,9.70
2022-10-26T04:12:23.350Z,9.69
2022-10-26T04:13:23.375Z,9.66
2022-10-26T04:14:23.315Z,9.64
2022-10-26T04:15:23.309Z,9.62
2022-10-26T04:16:23.330Z,9.62
2022-10-26T04:17:23.320Z,9.63
2022-10-26T04:18:23.297Z,9.64
2022-10-26T04:19:23.295Z,9.64
2022-10-26T04:20:23.253Z,9.63
2022-10-26T04:21:23.235Z,9.64
2022-10-26T04:22:23.229Z,9.63
2022-10-26T04:24:23.250Z,9.59
2022-10-26T04:25:23.210Z,9.59
2022-10-26T04:26:23.190Z,9.59
2022-10-26T04:27:23.177Z,9.64
2022-10-26T04:28:23.202Z,9.67
2022-10-26T04:29:23.227Z,9.73
2022-10-26T04:30:23.406Z,9.77
2022-10-26T04:31:23.137Z,9.80
2022-10-26T04:32:23.120Z,9.77
2022-10-26T04:33:23.144Z,9.77
2022-10-26T04:34:23.100Z,9.77
2022-10-26T04:35:23.108Z,9.81
2022-10-26T04:36:23.075Z,9.82
2022-10-26T04:37:23.069Z,9.84
2022-10-26T04:38:23.091Z,9.85
2022-10-26T04:39:23.037Z,9.84
2022-10-26T04:40:23.027Z,9.85
2022-10-26T04:41:23.029Z,9.87
2022-10-26T04:42:23.012Z,9.87
2022-10-26T04:43:23.025Z,9.85
2022-10-26T04:44:23.243Z,9.84
2022-10-26T04:45:22.972Z,9.82
2022-10-26T04:46:22.957Z,9.80
2022-10-26T04:47:22.974Z,9.77
2022-10-26T04:48:22.993Z,9.74
2022-10-26T04:49:22.936Z,9.73
2022-10-26T04:50:26.177Z,9.70
2022-10-26T04:51:22.963Z,9.64
2022-10-26T04:52:23.003Z,9.64
2022-10-26T04:53:22.927Z,9.64
2022-10-26T04:54:22.872Z,9.64
2022-10-26T04:55:22.880Z,9.64
2022-10-26T04:56:22.861Z,9.64
2022-10-26T04:57:23.379Z,9.69
2022-10-26T04:58:22.830Z,9.69
2022-10-26T04:59:22.844Z,9.67
2022-10-26T05:00:22.907Z,9.67
2022-10-26T05:01:23.019Z,9.66
2022-10-26T05:02:22.909Z,9.64
2022-10-26T05:03:22.811Z,9.59
2022-10-26T05:04:22.822Z,9.56
2022-10-26T05:05:22.809Z,9.55
2022-10-26T05:06:22.756Z,9.52
2022-10-26T05:07:22.734Z,9.52
2022-10-26T05:08:22.781Z,9.49
2022-10-26T05:09:22.701Z,9.49
2022-10-26T05:10:22.728Z,9.48
2022-10-26T05:11:22.691Z,9.47
2022-10-26T05:12:22.681Z,9.42
2022-10-26T05:13:22.770Z,9.42
2022-10-26T05:14:22.646Z,9.34
2022-10-26T05:15:22.657Z,9.30
2022-10-26T05:16:22.681Z,9.26
2022-10-26T05:17:22.613Z,9.22
2022-10-26T05:18:22.618Z,9.19
2022-10-26T05:19:22.627Z,9.16
2022-10-26T05:20:22.576Z,9.13
2022-10-26T05:21:22.562Z,9.12
2022-10-26T05:22:22.578Z,9.13
2022-10-26T05:23:22.560Z,9.13
2022-10-26T05:24:22.578Z,9.12
2022-10-26T05:25:22.520Z,9.12
2022-10-26T05:26:22.518Z,9.11
2022-10-26T05:27:23.241Z,9.08
2022-10-26T05:28:28.502Z,9.05
2022-10-26T05:29:28.488Z,9.05
2022-10-26T05:30:28.440Z,9.03
2022-10-26T05:31:22.699Z,9.05
2022-10-26T05:32:22.448Z,9.08
2022-10-26T05:33:22.484Z,9.08
2022-10-26T05:34:22.464Z,9.08
2022-10-26T05:35:22.943Z,9.08
2022-10-26T05:36:22.392Z,9.09
2022-10-26T05:37:22.390Z,9.05
2022-10-26T05:38:22.464Z,9.02
2022-10-26T05:39:22.435Z,9.03
2022-10-26T05:40:22.364Z,9.03
2022-10-26T05:41:22.347Z,9.03
2022-10-26T05:42:22.334Z,9.08
2022-10-26T05:43:22.326Z,9.08
2022-10-26T05:44:22.350Z,9.09
2022-10-26T05:45:22.353Z,9.11
2022-10-26T05:46:22.290Z,9.09
2022-10-26T05:47:22.317Z,9.12
2022-10-26T05:48:22.270Z,9.11
2022-10-26T05:49:22.250Z,9.11
2022-10-26T05:50:22.238Z,9.09
2022-10-26T05:51:22.930Z,9.11
2022-10-26T05:52:22.262Z,9.11
2022-10-26T05:53:22.233Z,9.12
2022-10-26T05:54:22.203Z,9.13
2022-10-26T05:55:22.219Z,9.13
2022-10-26T05:56:22.207Z,9.16
2022-10-26T05:57:22.173Z,9.18
2022-10-26T05:58:22.186Z,9.18
2022-10-26T05:59:22.142Z,9.21
2022-10-26T06:00:22.214Z,9.21
2022-10-26T06:01:22.518Z,9.19
2022-10-26T06:02:22.318Z,9.19
2022-10-26T06:03:22.164Z,9.19
2022-10-26T06:04:22.085Z,9.21
2022-10-26T06:05:22.073Z,9.19
2022-10-26T06:06:22.096Z,9.21
2022-10-26T06:07:22.068Z,9.26
2022-10-26T06:08:22.099Z,9.27
2022-10-26T06:09:22.082Z,9.29
2022-10-26T06:10:22.019Z,9.31
2022-10-26T06:11:22.006Z,9.34
2022-10-26T06:12:22.001Z,9.36
2022-10-26T06:13:21.987Z,9.34
2022-10-26T06:14:22.027Z,9.34
2022-10-26T06:15:21.965Z,9.31
2022-10-26T06:16:22.014Z,9.30
2022-10-26T06:17:21.944Z,9.29
2022-10-26T06:18:21.926Z,9.29
2022-10-26T06:19:21.922Z,9.31
2022-10-26T06:20:21.937Z,9.33
2022-10-26T06:21:21.928Z,9.34
2022-10-26T06:22:21.893Z,9.34
2022-10-26T06:23:21.881Z,9.33
2022-10-26T06:24:21.850Z,9.34
2022-10-26T06:25:21.864Z,9.37
2022-10-26T06:26:22.460Z,9.36
2022-10-26T06:27:21.851Z,9.33
2022-10-26T06:28:21.946Z,9.34
2022-10-26T06:29:21.811Z,9.36
2022-10-26T06:30:21.927Z,9.37
2022-10-26T06:31:21.950Z,9.36
2022-10-26T06:32:21.786Z,9.34
2022-10-26T06:33:29.589Z,9.36
2022-10-26T06:34:21.753Z,9.34
2022-10-26T06:35:21.763Z,9.36
2022-10-26T06:36:21.728Z,9.34
2022-10-26T06:37:21.730Z,9.36
2022-10-26T06:38:21.734Z,9.36
2022-10-26T06:39:22.341Z,9.39
2022-10-26T06:40:21.749Z,9.40
2022-10-26T06:41:21.664Z,9.42
2022-10-26T06:42:21.663Z,9.44
2022-10-26T06:43:21.683Z,9.45
2022-10-26T06:44:21.690Z,9.47
2022-10-26T06:45:21.633Z,9.47
2022-10-26T06:46:21.610Z,9.47
2022-10-26T06:47:23.564Z,9.47
2022-10-26T06:48:21.582Z,9.47
2022-10-26T06:49:21.628Z,9.47
2022-10-26T06:50:21.586Z,9.47
2022-10-26T06:51:21.583Z,9.49
2022-10-26T06:52:21.544Z,9.51
2022-10-26T06:53:21.530Z,9.52
2022-10-26T06:54:21.564Z,9.54
2022-10-26T06:55:21.586Z,9.55
2022-10-26T06:56:21.523Z,9.56
2022-10-26T06:57:21.547Z,9.58
2022-10-26T06:58:21.488Z,9.62
2022-10-26T06:59:21.496Z,9.63
2022-10-26T07:00:21.533Z,9.64
2022-10-26T07:01:21.559Z,9.67
2022-10-26T07:02:21.669Z,9.69
2022-10-26T07:03:21.444Z,9.72
2022-10-26T07:04:21.446Z,9.73
2022-10-26T07:05:21.408Z,9.76
2022-10-26T07:06:21.395Z,9.77
2022-10-26T07:07:21.462Z,9.76
2022-10-26T07:08:21.380Z,9.77
2022-10-26T07:09:21.356Z,9.81
2022-10-26T07:10:21.380Z,9.84
2022-10-26T07:11:21.339Z,9.85
2022-10-26T07:12:21.322Z,9.88
2022-10-26T07:13:21.312Z,9.90
2022-10-26T07:14:21.330Z,9.90
2022-10-26T07:15:21.319Z,9.91
2022-10-26T07:16:21.277Z,9.94
2022-10-26T07:17:21.300Z,9.95
2022-10-26T07:18:21.248Z,9.95
2022-10-26T07:19:21.248Z,9.99
2022-10-26T07:20:21.287Z,10.02
2022-10-26T07:21:21.257Z,10.05
2022-10-26T07:22:21.254Z,10.09
2022-10-26T07:23:21.233Z,10.12
2022-10-26T07:24:21.186Z,10.13
2022-10-26T07:25:21.240Z,10.18
2022-10-26T07:26:21.159Z,10.18
2022-10-26T07:27:21.195Z,10.20
2022-10-26T07:28:21.137Z,10.21
2022-10-26T07:29:21.130Z,10.24
2022-10-26T07:30:21.193Z,10.25
2022-10-26T07:31:21.127Z,10.27
2022-10-26T07:32:21.180Z,10.30
2022-10-26T07:33:21.117Z,10.33
2022-10-26T07:34:21.070Z,10.34
2022-10-26T07:35:21.076Z,10.34
2022-10-26T07:36:21.055Z,10.28
2022-10-26T07:37:21.099Z,10.30
2022-10-26T07:38:21.083Z,10.30
2022-10-26T07:39:21.032Z,10.30
2022-10-26T07:41:21.054Z,10.34
2022-10-26T07:42:20.991Z,10.38
2022-10-26T07:43:21.003Z,10.38
2022-10-26T07:44:20.969Z,10.39
2022-10-26T07:45:20.960Z,10.42
2022-10-26T07:46:20.981Z,10.42
2022-10-26T07:47:20.926Z,10.43
2022-10-26T07:48:20.915Z,10.42
2022-10-26T07:49:23.749Z,10.43
2022-10-26T07:50:20.897Z,10.48
2022-10-26T07:51:20.916Z,10.49
2022-10-26T07:52:20.903Z,10.51
2022-10-26T07:53:24.019Z,10.53
2022-10-26T07:54:20.901Z,10.57
2022-10-26T07:55:21.446Z,10.58
2022-10-26T07:56:20.883Z,10.58
2022-10-26T07:57:20.818Z,10.62
2022-10-26T07:58:20.801Z,10.64
2022-10-26T07:59:20.910Z,10.67
2022-10-26T08:00:20.827Z,10.68
2022-10-26T08:01:20.963Z,10.71
2022-10-26T08:02:20.772Z,10.75
2022-10-26T08:03:20.764Z,10.76
2022-10-26T08:04:20.740Z,10.80
2022-10-26T08:05:20.766Z,10.79
2022-10-26T08:06:20.762Z,10.83
2022-10-26T08:07:20.729Z,10.83
2022-10-26T08:08:20.745Z,10.83
2022-10-26T08:09:20.712Z,10.84
2022-10-26T08:10:20.717Z,10.86
2022-10-26T08:11:20.662Z,10.89
2022-10-26T08:12:20.664Z,10.90
2022-10-26T08:13:20.646Z,10.94
2022-10-26T08:14:20.652Z,10.97
2022-10-26T08:15:20.664Z,11.00
2022-10-26T08:16:20.609Z,11.02
2022-10-26T08:17:20.634Z,11.04
2022-10-26T08:18:20.581Z,11.05
2022-10-26T08:19:20.655Z,11.10
2022-10-26T08:20:20.648Z,11.12
2022-10-26T08:21:22.042Z,11.13
2022-10-26T08:22:20.589Z,11.16
2022-10-26T08:23:20.574Z,11.18
2022-10-26T08:24:20.537Z,11.19
2022-10-26T08:25:21.558Z,11.20
2022-10-26T08:26:20.545Z,11.23
2022-10-26T08:27:20.536Z,11.25
2022-10-26T08:28:20.480Z,11.26
2022-10-26T08:29:20.600Z,11.31
2022-10-26T08:30:20.501Z,11.31
2022-10-26T08:31:20.510Z,11.34
2022-10-26T08:32:20.433Z,11.37
2022-10-26T08:33:20.459Z,11.40
2022-10-26T08:34:21.835Z,11.44
2022-10-26T08:35:20.402Z,11.45
2022-10-26T08:36:20.390Z,11.51
2022-10-26T08:37:20.443Z,11.52
2022-10-26T08:38:20.353Z,11.55
2022-10-26T08:39:20.357Z,11.58
2022-10-26T08:40:20.402Z,11.59
2022-10-26T08:41:21.269Z,11.62
2022-10-26T08:42:20.355Z,11.65
2022-10-26T08:43:20.317Z,11.70
2022-10-26T08:44:20.302Z,11.70
2022-10-26T08:45:24.702Z,11.71
2022-10-26T08:46:20.287Z,11.76
2022-10-26T08:47:20.363Z,11.78
2022-10-26T08:48:20.246Z,11.83
2022-10-26T08:49:20.247Z,11.89
2022-10-26T08:50:20.299Z,11.91
2022-10-26T08:51:20.223Z,11.96
2022-10-26T08:52:20.235Z,11.99
2022-10-26T08:53:20.229Z,12.00
2022-10-26T08:54:20.228Z,12.05
2022-10-26T08:55:20.182Z,12.10
2022-10-26T08:56:20.145Z,12.14
2022-10-26T08:57:20.154Z,12.18
2022-10-26T08:58:20.151Z,12.23
2022-10-26T08:59:20.174Z,12.26
2022-10-26T09:00:20.321Z,12.30
2022-10-26T09:01:20.284Z,12.35
2022-10-26T09:02:20.079Z,12.35
2022-10-26T09:03:20.068Z,12.36
2022-10-26T09:04:20.119Z,12.40
2022-10-26T09:05:20.080Z,12.45
2022-10-26T09:06:20.073Z,12.50
2022-10-26T09:07:20.134Z,12.51
2022-10-26T09:08:20.067Z,12.55
2022-10-26T09:09:20.012Z,12.57
2022-10-26T09:10:20.132Z,12.61
2022-10-26T09:11:20.320Z,12.61
2022-10-26T09:12:20.048Z,12.62
2022-10-26T09:13:19.966Z,12.61
2022-10-26T09:14:19.967Z,12.58
2022-10-26T09:15:19.944Z,12.58
2022-10-26T09:16:19.935Z,12.63
2022-10-26T09:17:19.952Z,12.66
2022-10-26T09:18:20.955Z,12.69
2022-10-26T09:19:19.901Z,12.72
2022-10-26T09:20:19.919Z,12.76
2022-10-26T09:21:19.886Z,12.81
2022-10-26T09:22:19.917Z,12.87
2022-10-26T09:23:19.878Z,12.94
2022-10-26T09:24:19.916Z,13.01
2022-10-26T09:25:19.880Z,13.05
2022-10-26T09:26:19.828Z,13.11
2022-10-26T09:27:19.824Z,13.19
2022-10-26T09:28:19.864Z,13.27
2022-10-26T09:29:19.833Z,13.33
2022-10-26T09:30:19.787Z,13.43
2022-10-26T09:31:19.846Z,13.45
2022-10-26T09:32:19.786Z,13.50
2022-10-26T09:33:19.825Z,13.55
2022-10-26T09:34:19.751Z,13.58
2022-10-26T09:35:19.786Z,13.61
2022-10-26T09:36:19.712Z,13.65
2022-10-26T09:37:19.693Z,13.70
2022-10-26T09:38:20.093Z,13.71
2022-10-26T09:39:19.687Z,13.78
2022-10-26T09:40:19.660Z,13.82
2022-10-26T09:41:19.658Z,13.80
2022-10-26T09:42:19.704Z,13.85
2022-10-26T09:43:19.706Z,13.86
2022-10-26T09:44:19.622Z,13.83
2022-10-26T09:45:19.648Z,13.85
2022-10-26T09:46:19.589Z,13.89
2022-10-26T09:47:20.422Z,13.91
2022-10-26T09:48:19.574Z,13.87
2022-10-26T09:49:19.664Z,13.85
2022-10-26T09:50:21.257Z,13.86
2022-10-26T09:51:19.552Z,13.87
2022-10-26T09:52:19.525Z,13.86
2022-10-26T09:53:19.537Z,13.87
2022-10-26T09:54:19.505Z,13.89
2022-10-26T09:55:19.589Z,13.93
2022-10-26T09:56:19.485Z,13.94
2022-10-26T09:57:19.483Z,13.94
2022-10-26T09:58:19.465Z,13.95
2022-10-26T09:59:19.495Z,14.00
2022-10-26T10:00:19.698Z,14.04
2022-10-26T10:01:19.483Z,14.05
2022-10-26T10:02:19.450Z,14.07
2022-10-26T10:03:19.486Z,14.08
2022-10-26T10:04:19.456Z,14.12
2022-10-26T10:05:27.354Z,14.16
2022-10-26T10:06:19.405Z,14.18
2022-10-26T10:07:19.404Z,14.19
2022-10-26T10:08:19.360Z,14.25
2022-10-26T10:09:19.358Z,14.31
2022-10-26T10:10:19.383Z,14.31
2022-10-26T10:11:19.317Z,14.36
2022-10-26T10:12:19.923Z,14.37
2022-10-26T10:13:19.367Z,14.41
2022-10-26T10:14:19.338Z,14.48
2022-10-26T10:15:19.265Z,14.53
2022-10-26T10:16:19.301Z,14.58
2022-10-26T10:17:19.289Z,14.63
2022-10-26T10:18:19.265Z,14.70
2022-10-26T10:19:19.250Z,14.77
2022-10-26T10:20:19.253Z,14.78
2022-10-26T10:21:19.247Z,14.89
2022-10-26T10:22:19.190Z,14.96
2022-10-26T10:23:19.185Z,15.04
2022-10-26T10:24:19.235Z,15.11
2022-10-26T10:25:19.330Z,15.12
2022-10-26T10:26:19.153Z,15.15
2022-10-26T10:27:19.156Z,15.18
2022-10-26T10:29:19.148Z,15.17
2022-10-26T10:30:19.141Z,15.22
2022-10-26T10:31:19.237Z,15.23
2022-10-26T10:32:19.095Z,15.29
2022-10-26T10:33:19.077Z,15.26
2022-10-26T10:34:19.052Z,15.29
2022-10-26T10:35:19.054Z,15.33
2022-10-26T10:36:19.078Z,15.41
2022-10-26T10:37:19.053Z,15.47
2022-10-26T10:38:19.006Z,15.47
2022-10-26T10:39:19.019Z,15.51
2022-10-26T10:40:19.083Z,15.55
2022-10-26T10:41:19.005Z,15.62
2022-10-26T10:42:18.965Z,15.72
2022-10-26T10:43:18.985Z,15.83
2022-10-26T10:44:18.979Z,15.87
2022-10-26T10:45:19.004Z,15.90
2022-10-26T10:46:19.469Z,15.88
2022-10-26T10:47:18.912Z,15.92
2022-10-26T10:48:19.412Z,15.99
2022-10-26T10:49:18.958Z,16.05
2022-10-26T10:50:18.925Z,16.05
2022-10-26T10:51:19.757Z,16.03
2022-10-26T10:52:18.856Z,16.06
2022-10-26T10:53:18.842Z,16.03
2022-10-26T10:54:19.040Z,16.02
2022-10-26T10:55:18.816Z,16.05
2022-10-26T10:56:19.466Z,16.08
2022-10-26T10:57:18.847Z,16.09
2022-10-26T10:58:18.780Z,16.22
2022-10-26T10:59:18.770Z,16.28
2022-10-26T11:00:18.798Z,16.26
2022-10-26T11:01:18.861Z,16.34
2022-10-26T11:02:19.936Z,16.41
2022-10-26T11:03:23.268Z,16.46
2022-10-26T11:04:18.743Z,16.44
2022-10-26T11:05:21.993Z,16.47
2022-10-26T11:06:18.833Z,16.47
2022-10-26T11:07:18.710Z,16.47
2022-10-26T11:08:19.421Z,16.41
2022-10-26T11:09:18.713Z,16.43
2022-10-26T11:10:18.738Z,16.43
2022-10-26T11:11:19.030Z,16.41
2022-10-26T11:12:19.397Z,16.41
2022-10-26T11:13:18.639Z,16.44
2022-10-26T11:14:18.638Z,16.44
2022-10-26T11:15:18.631Z,16.46
2022-10-26T11:16:18.619Z,16.49
2022-10-26T11:17:18.578Z,16.50
2022-10-26T11:18:19.463Z,16.49
2022-10-26T11:19:18.571Z,16.54
2022-10-26T11:20:18.579Z,16.58
2022-10-26T11:21:18.579Z,16.64
2022-10-26T11:22:18.531Z,16.66
2022-10-26T11:23:18.531Z,16.74
2022-10-26T11:24:18.522Z,16.79
2022-10-26T11:25:18.515Z,16.79
2022-10-26T11:26:18.541Z,16.83
2022-10-26T11:27:18.477Z,16.84
2022-10-26T11:28:18.442Z,16.83
2022-10-26T11:29:18.557Z,16.82
2022-10-26T11:30:18.499Z,16.84
2022-10-26T11:31:18.439Z,16.86
2022-10-26T11:32:18.416Z,16.80
2022-10-26T11:33:18.469Z,16.82
2022-10-26T11:34:18.486Z,16.80
2022-10-26T11:35:18.433Z,16.77
2022-10-26T11:36:21.123Z,16.80
2022-10-26T11:37:18.356Z,16.79
2022-10-26T11:38:23.932Z,16.77
2022-10-26T11:39:18.372Z,16.76
2022-10-26T11:40:18.354Z,16.69
2022-10-26T11:41:18.366Z,16.66
2022-10-26T11:42:18.293Z,16.68
2022-10-26T11:43:18.271Z,16.69
2022-10-26T11:44:18.411Z,16.72
2022-10-26T11:45:18.252Z,16.76
2022-10-26T11:46:19.257Z,16.74
2022-10-26T11:47:18.235Z,16.79
2022-10-26T11:48:18.938Z,16.89
2022-10-26T11:49:18.246Z,16.97
2022-10-26T11:50:18.269Z,17.07
2022-10-26T11:51:18.183Z,17.14
2022-10-26T11:52:18.476Z,17.20
2022-10-26T11:53:18.192Z,17.28
2022-10-26T11:54:18.226Z,17.37
2022-10-26T11:55:18.138Z,17.41
2022-10-26T11:56:18.252Z,17.47
2022-10-26T11:57:18.168Z,17.63
2022-10-26T11:58:18.115Z,17.73
2022-10-26T11:59:18.178Z,17.82
2022-10-26T12:00:18.123Z,17.90
2022-10-26T12:01:18.136Z,18.00
2022-10-26T12:02:18.073Z,18.13
2022-10-26T12:03:18.057Z,18.27
2022-10-26T12:04:18.089Z,18.36
2022-10-26T12:05:18.170Z,18.42
2022-10-26T12:06:18.129Z,18.48
2022-10-26T12:07:18.006Z,18.51
2022-10-26T12:08:18.054Z,18.58
2022-10-26T12:09:17.985Z,18.58
2022-10-26T12:10:21.521Z,18.58
2022-10-26T12:11:17.987Z,18.53
2022-10-26T12:12:17.955Z,18.57
2022-10-26T12:13:18.013Z,18.57
2022-10-26T12:14:17.941Z,18.58
2022-10-26T12:15:17.933Z,18.53
2022-10-26T12:16:17.911Z,18.53
2022-10-26T12:17:17.963Z,18.53
2022-10-26T12:18:26.872Z,18.58
2022-10-26T12:19:17.914Z,18.63
2022-10-26T12:20:17.863Z,18.60
2022-10-26T12:21:17.902Z,18.66
2022-10-26T12:22:17.859Z,18.67
2022-10-26T12:23:23.424Z,18.68
2022-10-26T12:24:17.847Z,18.74
2022-10-26T12:25:18.428Z,18.82
2022-10-26T12:26:17.815Z,18.92
2022-10-26T12:27:17.853Z,18.94
2022-10-26T12:28:24.254Z,19.12
2022-10-26T12:29:17.782Z,19.15
2022-10-26T12:30:17.798Z,19.26
2022-10-26T12:31:17.746Z,19.53
2022-10-26T12:32:17.739Z,19.93
2022-10-26T12:33:17.723Z,20.39
2022-10-26T12:34:17.732Z,20.86
2022-10-26T12:35:17.730Z,21.22
2022-10-26T12:36:17.683Z,21.37
2022-10-26T12:37:17.667Z,21.69
2022-10-26T12:38:17.721Z,21.91
2022-10-26T12:39:17.657Z,21.88
2022-10-26T12:40:17.693Z,21.65
2022-10-26T12:41:17.684Z,22.14
2022-10-26T12:42:17.654Z,22.14
2022-10-26T12:43:17.640Z,21.33
2022-10-26T12:44:17.601Z,20.68
2022-10-26T12:45:17.599Z,20.37
2022-10-26T12:46:17.617Z,20.42
2022-10-26T12:47:17.560Z,20.85
2022-10-26T12:48:27.800Z,21.68
2022-10-26T12:49:17.554Z,22.22
2022-10-26T12:50:19.421Z,22.68
2022-10-26T12:51:17.557Z,23.11
2022-10-26T12:52:17.585Z,23.58
2022-10-26T12:53:17.493Z,23.79
2022-10-26T12:54:17.481Z,23.91
2022-10-26T12:55:17.530Z,24.28
2022-10-26T12:56:17.461Z,24.37
2022-10-26T12:57:17.500Z,24.34
2022-10-26T12:58:17.434Z,24.22
2022-10-26T12:59:17.429Z,24.10
2022-10-26T13:00:17.458Z,24.24
2022-10-26T13:01:17.442Z,24.58
2022-10-26T13:02:17.393Z,24.61
2022-10-26T13:03:17.504Z,24.59